createdAt,value
2017-03-03T00:00:19.790Z,957.24
2017-03-03T00:01:28.194Z,957.26
2017-03-03T00:02:28.196Z,957.23
2017-03-03T00:03:28.311Z,957.28
2017-03-03T00:04:28.523Z,957.25
2017-03-03T00:06:23.461Z,957.28
2017-03-03T00:07:23.895Z,957.25
2017-03-03T00:08:32.750Z,957.24
2017-03-03T00:09:22.538Z,957.24
2017-03-03T00:10:19.926Z,957.28
2017-03-03T00:11:21.377Z,957.24
2017-03-03T00:12:17.729Z,957.23
2017-03-03T00:13:22.847Z,957.19
2017-03-03T00:14:22.739Z,957.23
2017-03-03T00:15:22.970Z,957.23
2017-03-03T00:16:22.538Z,957.25
2017-03-03T00:17:34.172Z,957.26
2017-03-03T00:18:22.982Z,957.24
2017-03-03T00:19:19.987Z,957.24
2017-03-03T00:20:19.975Z,957.25
2017-03-03T00:21:23.325Z,957.24
2017-03-03T00:22:25.131Z,957.22
2017-03-03T00:23:27.489Z,957.27
2017-03-03T00:24:23.295Z,957.27
2017-03-03T00:25:23.093Z,957.25
2017-03-03T00:26:29.228Z,957.23
2017-03-03T00:27:23.905Z,957.22
2017-03-03T00:28:20.301Z,957.27
2017-03-03T00:29:22.479Z,957.19
2017-03-03T00:30:23.318Z,957.21
2017-03-03T00:31:22.481Z,957.21
2017-03-03T00:32:26.593Z,957.25
2017-03-03T00:33:22.340Z,957.22
2017-03-03T00:34:27.596Z,957.20
2017-03-03T00:35:22.300Z,957.24
2017-03-03T00:36:33.042Z,957.22
2017-03-03T00:37:23.994Z,957.21
2017-03-03T00:38:32.520Z,957.24
2017-03-03T00:39:22.272Z,957.25
2017-03-03T00:40:17.832Z,957.28
2017-03-03T00:41:28.485Z,957.24
2017-03-03T00:42:25.857Z,957.25
2017-03-03T00:43:22.713Z,957.31
2017-03-03T00:44:23.294Z,957.26
2017-03-03T00:45:15.454Z,957.27
2017-03-03T00:46:27.296Z,957.35
2017-03-03T00:47:22.490Z,957.29
2017-03-03T00:48:20.581Z,957.29
2017-03-03T00:49:31.901Z,957.24
2017-03-03T00:50:32.491Z,957.23
2017-03-03T00:51:31.631Z,957.26
2017-03-03T00:52:31.824Z,957.28
2017-03-03T00:53:22.473Z,957.26
2017-03-03T00:54:24.301Z,957.25
2017-03-03T00:55:38.336Z,957.27
2017-03-03T00:56:31.356Z,957.19
2017-03-03T00:57:26.494Z,957.17
2017-03-03T00:58:26.427Z,957.16
2017-03-03T00:59:17.587Z,957.13
2017-03-03T01:00:19.922Z,957.14
2017-03-03T01:01:21.957Z,957.11
2017-03-03T01:02:33.271Z,957.09
2017-03-03T01:03:22.478Z,957.12
2017-03-03T01:04:37.610Z,957.09
2017-03-03T01:05:36.283Z,957.06
2017-03-03T01:06:23.324Z,957.08
2017-03-03T01:07:23.356Z,957.09
2017-03-03T01:08:32.113Z,957.09
2017-03-03T01:09:28.269Z,957.04
2017-03-03T01:10:27.412Z,957.04
2017-03-03T01:11:24.463Z,957.03
2017-03-03T01:12:22.867Z,956.98
2017-03-03T01:13:23.058Z,956.91
2017-03-03T01:14:17.563Z,956.93
2017-03-03T01:15:24.293Z,956.91
2017-03-03T01:16:27.531Z,956.92
2017-03-03T01:17:26.733Z,956.91
2017-03-03T01:18:28.303Z,956.88
2017-03-03T01:19:21.124Z,956.86
2017-03-03T01:20:34.131Z,956.86
2017-03-03T01:21:18.326Z,956.86
2017-03-03T01:22:27.442Z,956.84
2017-03-03T01:23:23.130Z,956.85
2017-03-03T01:24:22.447Z,956.86
2017-03-03T01:25:17.696Z,956.87
2017-03-03T01:26:22.445Z,956.86
2017-03-03T01:27:31.702Z,956.92
2017-03-03T01:28:26.167Z,956.88
2017-03-03T01:29:26.302Z,956.84
2017-03-03T01:30:26.434Z,956.83
2017-03-03T01:31:22.549Z,956.81
2017-03-03T01:32:27.353Z,956.84
2017-03-03T01:33:31.389Z,956.82
2017-03-03T01:34:22.445Z,956.84
2017-03-03T01:35:26.518Z,956.80
2017-03-03T01:36:28.873Z,956.82
2017-03-03T01:37:27.379Z,956.76
2017-03-03T01:38:32.124Z,956.76
2017-03-03T01:39:22.060Z,956.78
2017-03-03T01:40:27.956Z,956.76
2017-03-03T01:41:28.100Z,956.76
2017-03-03T01:42:33.359Z,956.80
2017-03-03T01:43:27.403Z,956.77
2017-03-03T01:44:27.800Z,956.81
2017-03-03T01:45:31.793Z,956.78
2017-03-03T01:46:32.658Z,956.74
2017-03-03T01:47:22.875Z,956.74
2017-03-03T01:48:28.371Z,956.74
2017-03-03T01:49:22.857Z,956.73
2017-03-03T01:50:31.767Z,956.74
2017-03-03T01:51:27.915Z,956.77
2017-03-03T01:52:22.357Z,956.75
2017-03-03T01:53:22.267Z,956.72
2017-03-03T01:54:31.988Z,956.76
2017-03-03T01:55:32.269Z,956.70
2017-03-03T01:56:22.388Z,956.70
2017-03-03T01:57:26.738Z,956.69
2017-03-03T01:58:22.186Z,956.70
2017-03-03T01:59:26.323Z,956.72
2017-03-03T02:00:23.374Z,956.70
2017-03-03T02:01:27.476Z,956.70
2017-03-03T02:02:17.199Z,956.66
2017-03-03T02:03:27.394Z,956.65
2017-03-03T02:04:20.185Z,956.63
2017-03-03T02:05:14.771Z,956.62
2017-03-03T02:06:28.194Z,956.62
2017-03-03T02:07:28.658Z,956.63
2017-03-03T02:08:18.005Z,956.56
2017-03-03T02:09:22.795Z,956.59
2017-03-03T02:10:27.366Z,956.53
2017-03-03T02:11:23.463Z,956.55
2017-03-03T02:12:26.340Z,956.55
2017-03-03T02:13:23.793Z,956.56
2017-03-03T02:14:27.919Z,956.53
2017-03-03T02:15:21.633Z,956.53
2017-03-03T02:16:21.320Z,956.54
2017-03-03T02:17:14.288Z,956.52
2017-03-03T02:18:36.415Z,956.51
2017-03-03T02:19:30.414Z,956.50
2017-03-03T02:20:19.270Z,956.49
2017-03-03T02:21:33.087Z,956.48
2017-03-03T02:22:28.172Z,956.43
2017-03-03T02:23:32.876Z,956.46
2017-03-03T02:24:20.190Z,956.43
2017-03-03T02:25:32.292Z,956.45
2017-03-03T02:26:22.514Z,956.42
2017-03-03T02:27:20.950Z,956.37
2017-03-03T02:28:29.564Z,956.36
2017-03-03T02:29:22.341Z,956.35
2017-03-03T02:30:35.687Z,956.35
2017-03-03T02:31:28.805Z,956.34
2017-03-03T02:32:27.951Z,956.31
2017-03-03T02:33:24.465Z,956.35
2017-03-03T02:34:22.859Z,956.33
2017-03-03T02:35:26.474Z,956.31
2017-03-03T02:36:25.153Z,956.29
2017-03-03T02:37:28.441Z,956.31
2017-03-03T02:38:22.939Z,956.31
2017-03-03T02:39:28.064Z,956.27
2017-03-03T02:40:24.364Z,956.29
2017-03-03T02:41:36.056Z,956.30
2017-03-03T02:42:22.758Z,956.33
2017-03-03T02:43:21.081Z,956.34
2017-03-03T02:44:18.258Z,956.37
2017-03-03T02:45:26.354Z,956.35
2017-03-03T02:46:15.302Z,956.36
2017-03-03T02:47:28.835Z,956.35
2017-03-03T02:48:31.533Z,956.36
2017-03-03T02:49:33.508Z,956.33
2017-03-03T02:50:17.523Z,956.31
2017-03-03T02:51:28.159Z,956.29
2017-03-03T02:52:20.899Z,956.37
2017-03-03T02:53:47.266Z,956.37
2017-03-03T02:54:22.774Z,956.37
2017-03-03T02:55:22.944Z,956.32
2017-03-03T02:56:26.521Z,956.28
2017-03-03T02:57:37.095Z,956.35
2017-03-03T02:58:24.718Z,956.28
2017-03-03T02:59:17.337Z,956.34
2017-03-03T03:00:36.058Z,956.33
2017-03-03T03:01:27.503Z,956.30
2017-03-03T03:02:32.730Z,956.28
2017-03-03T03:03:32.677Z,956.25
2017-03-03T03:04:22.283Z,956.23
2017-03-03T03:05:27.727Z,956.24
2017-03-03T03:06:22.676Z,956.25
2017-03-03T03:07:22.559Z,956.26
2017-03-03T03:08:18.418Z,956.27
2017-03-03T03:09:27.404Z,956.24
2017-03-03T03:10:26.513Z,956.26
2017-03-03T03:11:17.344Z,956.23
2017-03-03T03:12:22.312Z,956.26
2017-03-03T03:13:27.455Z,956.29
2017-03-03T03:14:23.407Z,956.23
2017-03-03T03:15:22.323Z,956.24
2017-03-03T03:16:25.411Z,956.24
2017-03-03T03:17:27.779Z,956.20
2017-03-03T03:18:19.559Z,956.24
2017-03-03T03:19:19.465Z,956.20
2017-03-03T03:20:20.796Z,956.22
2017-03-03T03:21:20.794Z,956.21
2017-03-03T03:22:27.307Z,956.25
2017-03-03T03:23:22.480Z,956.16
2017-03-03T03:24:27.488Z,956.16
2017-03-03T03:25:27.185Z,956.18
2017-03-03T03:26:28.747Z,956.16
2017-03-03T03:27:23.121Z,956.13
2017-03-03T03:28:26.487Z,956.15
2017-03-03T03:29:25.735Z,956.17
2017-03-03T03:30:22.910Z,956.14
2017-03-03T03:31:23.375Z,956.10
2017-03-03T03:32:16.847Z,956.13
2017-03-03T03:33:18.260Z,956.10
2017-03-03T03:34:27.089Z,956.08
2017-03-03T03:35:23.115Z,956.09
2017-03-03T03:36:23.192Z,956.06
2017-03-03T03:37:28.853Z,956.04
2017-03-03T03:38:18.918Z,956.02
2017-03-03T03:39:25.370Z,955.95
2017-03-03T03:40:22.422Z,955.92
2017-03-03T03:41:18.909Z,955.92
2017-03-03T03:42:23.742Z,955.89
2017-03-03T03:43:27.536Z,955.91
2017-03-03T03:44:26.628Z,955.92
2017-03-03T03:45:27.568Z,955.91
2017-03-03T03:46:28.698Z,955.96
2017-03-03T03:47:32.318Z,955.94
2017-03-03T03:48:23.900Z,955.93
2017-03-03T03:49:33.788Z,955.96
2017-03-03T03:50:28.447Z,955.96
2017-03-03T03:51:28.956Z,955.97
2017-03-03T03:52:23.955Z,955.95
2017-03-03T03:53:27.444Z,955.89
2017-03-03T03:54:27.536Z,955.88
2017-03-03T03:55:22.711Z,955.93
2017-03-03T03:56:27.501Z,955.87
2017-03-03T03:57:32.841Z,955.86
2017-03-03T03:58:32.858Z,955.89
2017-03-03T03:59:26.072Z,955.88
2017-03-03T04:00:22.724Z,955.86
2017-03-03T04:01:20.180Z,955.81
2017-03-03T04:02:23.434Z,955.79
2017-03-03T04:03:24.708Z,955.78
2017-03-03T04:04:18.160Z,955.79
2017-03-03T04:05:16.934Z,955.76
2017-03-03T04:06:28.004Z,955.76
2017-03-03T04:07:18.056Z,955.71
2017-03-03T04:08:27.836Z,955.70
2017-03-03T04:09:24.036Z,955.71
2017-03-03T04:10:22.807Z,955.69
2017-03-03T04:11:22.334Z,955.70
2017-03-03T04:12:25.337Z,955.69
2017-03-03T04:13:24.471Z,955.72
2017-03-03T04:14:31.192Z,955.66
2017-03-03T04:15:23.708Z,955.62
2017-03-03T04:16:22.362Z,955.58
2017-03-03T04:17:27.526Z,955.61
2017-03-03T04:18:31.728Z,955.61
2017-03-03T04:19:27.545Z,955.60
2017-03-03T04:20:23.376Z,955.59
2017-03-03T04:21:19.763Z,955.53
2017-03-03T04:22:23.829Z,955.59
2017-03-03T04:23:27.897Z,955.51
2017-03-03T04:24:30.178Z,955.49
2017-03-03T04:25:27.567Z,955.44
2017-03-03T04:26:28.714Z,955.44
2017-03-03T04:27:20.192Z,955.45
2017-03-03T04:28:27.848Z,955.40
2017-03-03T04:29:33.086Z,955.39
2017-03-03T04:30:22.971Z,955.39
2017-03-03T04:31:22.240Z,955.34
2017-03-03T04:32:23.202Z,955.41
2017-03-03T04:33:22.570Z,955.34
2017-03-03T04:34:22.725Z,955.34
2017-03-03T04:35:27.807Z,955.33
2017-03-03T04:36:27.622Z,955.35
2017-03-03T04:37:25.377Z,955.39
2017-03-03T04:38:25.404Z,955.30
2017-03-03T04:39:23.671Z,955.32
2017-03-03T04:40:12.628Z,955.25
2017-03-03T04:41:23.726Z,955.19
2017-03-03T04:42:31.786Z,955.12
2017-03-03T04:43:28.726Z,955.10
2017-03-03T04:44:22.818Z,955.02
2017-03-03T04:45:37.093Z,955.03
2017-03-03T04:46:22.979Z,954.97
2017-03-03T04:47:28.129Z,955.00
2017-03-03T04:48:26.282Z,954.90
2017-03-03T04:49:22.592Z,954.92
2017-03-03T04:50:26.670Z,954.97
2017-03-03T04:51:31.404Z,954.87
2017-03-03T04:52:20.663Z,954.80
2017-03-03T04:53:26.350Z,954.78
2017-03-03T04:54:26.324Z,954.76
2017-03-03T04:55:32.395Z,954.78
2017-03-03T04:56:23.142Z,954.77
2017-03-03T04:57:19.237Z,954.77
2017-03-03T04:58:31.122Z,954.79
2017-03-03T04:59:24.099Z,954.74
2017-03-03T05:00:16.925Z,954.71
2017-03-03T05:01:42.394Z,954.67
2017-03-03T05:02:17.276Z,954.65
2017-03-03T05:03:28.396Z,954.58
2017-03-03T05:04:26.054Z,954.58
2017-03-03T05:05:23.005Z,954.57
2017-03-03T05:06:28.769Z,954.53
2017-03-03T05:07:26.890Z,954.49
2017-03-03T05:08:25.152Z,954.51
2017-03-03T05:09:31.828Z,954.43
2017-03-03T05:10:26.851Z,954.42
2017-03-03T05:11:31.954Z,954.41
2017-03-03T05:12:28.596Z,954.36
2017-03-03T05:13:31.272Z,954.32
2017-03-03T05:14:27.592Z,954.29
2017-03-03T05:15:22.937Z,954.35
2017-03-03T05:16:25.864Z,954.32
2017-03-03T05:17:28.403Z,954.35
2017-03-03T05:18:25.115Z,954.32
2017-03-03T05:19:27.887Z,954.27
2017-03-03T05:20:31.642Z,954.28
2017-03-03T05:21:27.275Z,954.26
2017-03-03T05:22:18.366Z,954.19
2017-03-03T05:23:23.113Z,954.17
2017-03-03T05:24:22.726Z,954.15
2017-03-03T05:27:28.126Z,954.19
2017-03-03T05:28:23.613Z,954.20
2017-03-03T05:29:24.182Z,954.27
2017-03-03T05:30:24.695Z,954.27
2017-03-03T05:31:26.903Z,954.30
2017-03-03T05:32:26.941Z,954.32
2017-03-03T05:33:21.275Z,954.32
2017-03-03T05:34:27.134Z,954.30
2017-03-03T05:35:32.165Z,954.31
2017-03-03T05:36:19.695Z,954.31
2017-03-03T05:37:27.766Z,954.28
2017-03-03T05:38:22.504Z,954.25
2017-03-03T05:39:22.673Z,954.27
2017-03-03T05:40:26.952Z,954.22
2017-03-03T05:41:23.979Z,954.19
2017-03-03T05:42:22.673Z,954.22
2017-03-03T05:43:17.444Z,954.21
2017-03-03T05:44:26.533Z,954.18
2017-03-03T05:45:23.262Z,954.17
2017-03-03T05:46:26.350Z,954.18
2017-03-03T05:47:26.476Z,954.15
2017-03-03T05:48:26.424Z,954.15
2017-03-03T05:49:32.283Z,954.17
2017-03-03T05:50:09.925Z,954.12
2017-03-03T05:51:28.183Z,954.09
2017-03-03T05:52:19.115Z,954.09
2017-03-03T05:54:19.591Z,954.06
2017-03-03T05:55:27.549Z,954.08
2017-03-03T05:56:27.695Z,954.06
2017-03-03T05:57:15.722Z,954.06
2017-03-03T05:58:26.916Z,954.02
2017-03-03T05:59:26.466Z,953.96
2017-03-03T06:00:31.643Z,953.95
2017-03-03T06:01:31.535Z,953.92
2017-03-03T06:02:27.333Z,953.91
2017-03-03T06:03:26.491Z,953.89
2017-03-03T06:04:19.906Z,953.86
2017-03-03T06:05:20.778Z,953.87
2017-03-03T06:06:31.684Z,953.83
2017-03-03T06:07:31.994Z,953.83
2017-03-03T06:08:26.009Z,953.84
2017-03-03T06:09:16.925Z,953.85
2017-03-03T06:10:27.768Z,953.89
2017-03-03T06:11:27.888Z,953.92
2017-03-03T06:12:29.104Z,953.98
2017-03-03T06:13:27.357Z,953.85
2017-03-03T06:14:24.583Z,953.82
2017-03-03T06:15:26.679Z,953.76
2017-03-03T06:16:23.782Z,953.71
2017-03-03T06:17:31.805Z,953.74
2017-03-03T06:18:36.805Z,953.75
2017-03-03T06:19:26.915Z,953.76
2017-03-03T06:20:17.996Z,953.71
2017-03-03T06:21:25.812Z,953.71
2017-03-03T06:22:20.542Z,953.67
2017-03-03T06:23:17.748Z,953.61
2017-03-03T06:24:27.864Z,953.59
2017-03-03T06:25:28.032Z,953.55
2017-03-03T06:26:19.648Z,953.55
2017-03-03T06:27:26.884Z,953.45
2017-03-03T06:28:22.893Z,953.43
2017-03-03T06:29:28.957Z,953.39
2017-03-03T06:30:18.469Z,953.37
2017-03-03T06:31:26.603Z,953.40
2017-03-03T06:32:14.569Z,953.36
2017-03-03T06:33:23.931Z,953.29
2017-03-03T06:34:17.154Z,953.32
2017-03-03T06:35:26.929Z,953.30
2017-03-03T06:36:27.317Z,953.27
2017-03-03T06:37:28.458Z,953.29
2017-03-03T06:38:22.756Z,953.26
2017-03-03T06:39:23.923Z,953.24
2017-03-03T06:40:24.930Z,953.25
2017-03-03T06:41:38.345Z,953.32
2017-03-03T06:42:32.249Z,953.34
2017-03-03T06:43:36.182Z,953.37
2017-03-03T06:44:22.577Z,953.34
2017-03-03T06:45:24.679Z,953.30
2017-03-03T06:46:25.299Z,953.28
2017-03-03T06:48:35.809Z,953.22
2017-03-03T06:49:17.773Z,953.26
2017-03-03T06:50:18.130Z,953.28
2017-03-03T06:51:24.737Z,953.30
2017-03-03T06:52:20.443Z,953.33
2017-03-03T06:53:26.144Z,953.35
2017-03-03T06:54:26.406Z,953.38
2017-03-03T06:55:30.751Z,953.37
2017-03-03T06:56:26.870Z,953.33
2017-03-03T06:57:18.382Z,953.30
2017-03-03T06:58:26.585Z,953.28
2017-03-03T07:00:25.505Z,953.35
2017-03-03T07:01:28.909Z,953.37
2017-03-03T07:02:25.824Z,953.41
2017-03-03T07:03:28.006Z,953.42
2017-03-03T07:04:26.620Z,953.41
2017-03-03T07:05:17.759Z,953.47
2017-03-03T07:06:17.756Z,953.39
2017-03-03T07:07:27.571Z,953.38
2017-03-03T07:08:28.925Z,953.36
2017-03-03T07:09:17.814Z,953.39
2017-03-03T07:10:31.636Z,953.39
2017-03-03T07:11:33.824Z,953.36
2017-03-03T07:12:33.948Z,953.39
2017-03-03T07:13:26.780Z,953.42
2017-03-03T07:15:23.292Z,953.37
2017-03-03T07:16:17.713Z,953.39
2017-03-03T07:17:30.338Z,953.35
2017-03-03T07:18:24.950Z,953.41
2017-03-03T07:19:25.007Z,953.40
2017-03-03T07:21:22.953Z,953.40
2017-03-03T07:22:30.617Z,953.34
2017-03-03T07:23:26.673Z,953.31
2017-03-03T07:24:26.717Z,953.30
2017-03-03T07:25:31.674Z,953.32
2017-03-03T07:26:26.853Z,953.33
2017-03-03T07:27:27.427Z,953.27
2017-03-03T07:29:27.377Z,953.24
2017-03-03T07:30:25.439Z,953.19
2017-03-03T07:31:29.139Z,953.13
2017-03-03T07:32:22.868Z,953.11
2017-03-03T07:33:38.626Z,953.09
2017-03-03T07:34:31.873Z,952.96
2017-03-03T07:35:23.385Z,952.97
2017-03-03T07:36:18.466Z,952.89
2017-03-03T07:37:36.509Z,952.90
2017-03-03T07:38:22.747Z,952.81
2017-03-03T07:39:20.889Z,952.84
2017-03-03T07:40:28.511Z,952.82
2017-03-03T07:41:26.755Z,952.82
2017-03-03T07:42:31.652Z,952.85
2017-03-03T07:43:31.528Z,952.81
2017-03-03T07:44:26.366Z,952.73
2017-03-03T07:45:36.902Z,952.75
2017-03-03T07:46:33.029Z,952.63
2017-03-03T07:47:26.428Z,952.62
2017-03-03T07:48:35.428Z,952.62
2017-03-03T07:49:28.584Z,952.60
2017-03-03T07:50:37.688Z,952.54
2017-03-03T07:51:25.810Z,952.51
2017-03-03T07:52:19.547Z,952.48
2017-03-03T07:53:30.356Z,952.46
2017-03-03T07:54:26.847Z,952.42
2017-03-03T07:55:25.443Z,952.44
2017-03-03T07:56:31.677Z,952.40
2017-03-03T07:57:26.843Z,952.39
2017-03-03T07:58:36.669Z,952.43
2017-03-03T07:59:26.805Z,952.46
2017-03-03T08:00:32.452Z,952.43
2017-03-03T08:01:27.359Z,952.46
2017-03-03T08:02:32.960Z,952.52
2017-03-03T08:03:19.000Z,952.48
2017-03-03T08:04:18.071Z,952.49
2017-03-03T08:05:32.575Z,952.51
2017-03-03T08:06:19.677Z,952.42
2017-03-03T08:07:27.999Z,952.41
2017-03-03T08:08:32.555Z,952.38
2017-03-03T08:09:24.730Z,952.36
2017-03-03T08:10:26.027Z,952.31
2017-03-03T08:11:27.150Z,952.29
2017-03-03T08:12:24.218Z,952.39
2017-03-03T08:13:26.805Z,952.28
2017-03-03T08:14:27.460Z,952.29
2017-03-03T08:15:41.740Z,952.26
2017-03-03T08:16:33.240Z,952.27
2017-03-03T08:17:22.578Z,952.26
2017-03-03T08:18:28.065Z,952.21
2017-03-03T08:19:28.198Z,952.18
2017-03-03T08:20:23.127Z,952.18
2017-03-03T08:21:29.174Z,952.15
2017-03-03T08:22:29.411Z,952.10
2017-03-03T08:23:32.203Z,952.11
2017-03-03T08:24:31.952Z,952.07
2017-03-03T08:25:15.863Z,952.09
2017-03-03T08:26:36.677Z,952.04
2017-03-03T08:27:22.941Z,952.03
2017-03-03T08:28:27.016Z,952.04
2017-03-03T08:29:27.141Z,951.98
2017-03-03T08:30:27.291Z,951.96
2017-03-03T08:31:22.477Z,951.93
2017-03-03T08:32:32.352Z,951.88
2017-03-03T08:33:22.501Z,951.94
2017-03-03T08:34:27.599Z,951.87
2017-03-03T08:35:31.500Z,951.82
2017-03-03T08:36:18.797Z,951.85
2017-03-03T08:37:30.739Z,951.84
2017-03-03T08:38:32.199Z,951.76
2017-03-03T08:39:25.985Z,951.78
2017-03-03T08:40:23.751Z,951.73
2017-03-03T08:41:26.578Z,951.77
2017-03-03T08:42:27.290Z,951.78
2017-03-03T08:43:20.340Z,951.74
2017-03-03T08:44:32.916Z,951.70
2017-03-03T08:45:32.743Z,951.71
2017-03-03T08:46:12.359Z,951.69
2017-03-03T08:47:31.780Z,951.69
2017-03-03T08:48:27.477Z,951.66
2017-03-03T08:49:23.058Z,951.61
2017-03-03T08:50:27.543Z,951.65
2017-03-03T08:51:24.247Z,951.66
2017-03-03T08:52:26.653Z,951.64
2017-03-03T08:53:31.851Z,951.62
2017-03-03T08:54:26.957Z,951.61
2017-03-03T08:55:26.923Z,951.65
2017-03-03T08:56:26.987Z,951.60
2017-03-03T08:57:27.706Z,951.59
2017-03-03T08:58:27.910Z,951.59
2017-03-03T08:59:29.080Z,951.57
2017-03-03T09:00:31.393Z,951.60
2017-03-03T09:01:26.360Z,951.58
2017-03-03T09:02:17.401Z,951.57
2017-03-03T09:03:32.645Z,951.52
2017-03-03T09:04:24.165Z,951.51
2017-03-03T09:05:18.377Z,951.46
2017-03-03T09:06:28.368Z,951.43
2017-03-03T09:07:27.478Z,951.39
2017-03-03T09:08:27.102Z,951.39
2017-03-03T09:09:30.080Z,951.40
2017-03-03T09:10:38.220Z,951.40
2017-03-03T09:11:31.953Z,951.40
2017-03-03T09:12:26.440Z,951.38
2017-03-03T09:13:32.819Z,951.39
2017-03-03T09:14:31.857Z,951.43
2017-03-03T09:15:27.286Z,951.42
2017-03-03T09:16:32.089Z,951.40
2017-03-03T09:17:28.343Z,951.40
2017-03-03T09:18:15.802Z,951.36
2017-03-03T09:19:32.141Z,951.36
2017-03-03T09:20:24.707Z,951.44
2017-03-03T09:21:37.159Z,951.38
2017-03-03T09:22:32.301Z,951.36
2017-03-03T09:23:28.610Z,951.37
2017-03-03T09:24:31.857Z,951.34
2017-03-03T09:25:33.040Z,951.37
2017-03-03T09:26:27.578Z,951.35
2017-03-03T09:27:31.787Z,951.36
2017-03-03T09:28:26.397Z,951.36
2017-03-03T09:29:19.007Z,951.36
2017-03-03T09:30:27.173Z,951.35
2017-03-03T09:31:27.315Z,951.36
2017-03-03T09:32:28.673Z,951.40
2017-03-03T09:33:19.133Z,951.34
2017-03-03T09:34:18.224Z,951.38
2017-03-03T09:35:22.203Z,951.34
2017-03-03T09:36:19.608Z,951.35
2017-03-03T09:37:26.828Z,951.36
2017-03-03T09:38:26.680Z,951.29
2017-03-03T09:39:26.396Z,951.27
2017-03-03T09:40:26.585Z,951.28
2017-03-03T09:41:31.741Z,951.25
2017-03-03T09:42:26.517Z,951.20
2017-03-03T09:43:31.749Z,951.19
2017-03-03T09:44:32.852Z,951.22
2017-03-03T09:45:26.592Z,951.19
2017-03-03T09:46:32.470Z,951.22
2017-03-03T09:47:20.896Z,951.12
2017-03-03T09:48:23.506Z,951.09
2017-03-03T09:49:19.917Z,951.12
2017-03-03T09:50:33.687Z,951.17
2017-03-03T09:51:25.805Z,951.09
2017-03-03T09:52:35.135Z,951.08
2017-03-03T09:53:27.828Z,951.06
2017-03-03T09:54:25.869Z,951.08
2017-03-03T09:55:26.395Z,951.05
2017-03-03T09:56:28.195Z,951.08
2017-03-03T09:57:27.417Z,951.06
2017-03-03T09:58:26.563Z,951.02
2017-03-03T09:59:26.655Z,951.09
2017-03-03T10:00:26.998Z,951.03
2017-03-03T10:01:32.630Z,951.02
2017-03-03T10:02:26.721Z,951.02
2017-03-03T10:03:27.826Z,950.97
2017-03-03T10:04:22.232Z,950.92
2017-03-03T10:05:18.046Z,950.88
2017-03-03T10:06:34.458Z,950.88
2017-03-03T10:07:39.184Z,950.85
2017-03-03T10:08:27.296Z,950.89
2017-03-03T10:09:27.438Z,950.86
2017-03-03T10:10:23.181Z,950.86
2017-03-03T10:11:26.999Z,950.82
2017-03-03T10:12:27.114Z,950.85
2017-03-03T10:13:24.517Z,950.83
2017-03-03T10:14:25.577Z,950.84
2017-03-03T10:15:25.930Z,950.82
2017-03-03T10:16:27.071Z,950.84
2017-03-03T10:17:26.970Z,950.84
2017-03-03T10:18:27.251Z,950.84
2017-03-03T10:19:27.714Z,950.81
2017-03-03T10:20:32.079Z,950.86
2017-03-03T10:21:27.885Z,950.79
2017-03-03T10:22:17.304Z,950.82
2017-03-03T10:23:26.426Z,950.80
2017-03-03T10:24:26.645Z,950.83
2017-03-03T10:25:32.420Z,950.77
2017-03-03T10:26:36.596Z,950.78
2017-03-03T10:27:34.895Z,950.77
2017-03-03T10:28:18.995Z,950.78
2017-03-03T10:29:17.827Z,950.78
2017-03-03T10:30:26.240Z,950.77
2017-03-03T10:31:21.896Z,950.78
2017-03-03T10:32:32.870Z,950.72
2017-03-03T10:33:28.055Z,950.72
2017-03-03T10:34:26.156Z,950.72
2017-03-03T10:35:32.236Z,950.73
2017-03-03T10:36:26.419Z,950.69
2017-03-03T10:37:21.541Z,950.70
2017-03-03T10:38:31.496Z,950.69
2017-03-03T10:39:27.688Z,950.66
2017-03-03T10:40:36.921Z,950.65
2017-03-03T10:41:26.538Z,950.59
2017-03-03T10:42:27.612Z,950.58
2017-03-03T10:43:32.979Z,950.48
2017-03-03T10:44:27.194Z,950.50
2017-03-03T10:45:26.299Z,950.49
2017-03-03T10:46:27.572Z,950.45
2017-03-03T10:47:25.379Z,950.47
2017-03-03T10:48:32.213Z,950.45
2017-03-03T10:49:36.248Z,950.45
2017-03-03T10:50:33.273Z,950.44
2017-03-03T10:51:32.899Z,950.41
2017-03-03T10:52:26.369Z,950.36
2017-03-03T10:53:27.730Z,950.37
2017-03-03T10:54:20.017Z,950.36
2017-03-03T10:55:27.119Z,950.35
2017-03-03T10:56:19.192Z,950.36
2017-03-03T10:57:26.941Z,950.35
2017-03-03T10:58:30.347Z,950.36
2017-03-03T10:59:40.401Z,950.38
2017-03-03T11:00:22.257Z,950.39
2017-03-03T11:01:33.321Z,950.40
2017-03-03T11:02:27.094Z,950.40
2017-03-03T11:03:27.792Z,950.40
2017-03-03T11:04:25.816Z,950.45
2017-03-03T11:05:32.552Z,950.41
2017-03-03T11:06:27.070Z,950.37
2017-03-03T11:07:22.237Z,950.37
2017-03-03T11:08:20.343Z,950.40
2017-03-03T11:09:28.990Z,950.31
2017-03-03T11:10:22.284Z,950.32
2017-03-03T11:11:26.376Z,950.34
2017-03-03T11:12:22.478Z,950.32
2017-03-03T11:13:28.599Z,950.36
2017-03-03T11:14:32.585Z,950.31
2017-03-03T11:15:31.812Z,950.26
2017-03-03T11:16:22.712Z,950.27
2017-03-03T11:17:24.564Z,950.25
2017-03-03T11:18:27.002Z,950.23
2017-03-03T11:19:29.111Z,950.20
2017-03-03T11:20:37.270Z,950.14
2017-03-03T11:21:38.493Z,950.17
2017-03-03T11:22:31.830Z,950.16
2017-03-03T11:23:42.013Z,950.16
2017-03-03T11:24:45.537Z,950.18
2017-03-03T11:25:29.747Z,950.11
2017-03-03T11:26:32.925Z,950.11
2017-03-03T11:27:26.402Z,950.09
2017-03-03T11:28:27.476Z,950.01
2017-03-03T11:29:28.580Z,950.05
2017-03-03T11:30:19.736Z,949.98
2017-03-03T11:31:23.229Z,950.00
2017-03-03T11:32:26.416Z,950.02
2017-03-03T11:33:27.353Z,950.05
2017-03-03T11:34:26.411Z,950.04
2017-03-03T11:35:26.725Z,950.02
2017-03-03T11:36:25.836Z,949.98
2017-03-03T11:37:26.574Z,949.96
2017-03-03T11:38:26.429Z,949.98
2017-03-03T11:39:22.680Z,949.94
2017-03-03T11:40:18.747Z,949.92
2017-03-03T11:41:26.432Z,949.88
2017-03-03T11:42:26.806Z,949.83
2017-03-03T11:43:26.923Z,949.83
2017-03-03T11:44:32.243Z,949.82
2017-03-03T11:45:21.317Z,949.83
2017-03-03T11:46:23.524Z,949.81
2017-03-03T11:47:26.520Z,949.78
2017-03-03T11:48:31.431Z,949.80
2017-03-03T11:49:28.367Z,949.71
2017-03-03T11:50:27.497Z,949.71
2017-03-03T11:51:22.644Z,949.71
2017-03-03T11:52:22.505Z,949.71
2017-03-03T11:53:18.180Z,949.65
2017-03-03T11:54:27.969Z,949.67
2017-03-03T11:55:26.339Z,949.64
2017-03-03T11:56:28.404Z,949.61
2017-03-03T11:57:36.255Z,949.61
2017-03-03T11:58:16.191Z,949.65
2017-03-03T11:59:28.854Z,949.58
2017-03-03T12:00:41.988Z,949.60
2017-03-03T12:01:32.232Z,949.53
2017-03-03T12:02:36.511Z,949.50
2017-03-03T12:03:30.242Z,949.51
2017-03-03T12:04:43.728Z,949.44
2017-03-03T12:05:32.774Z,949.43
2017-03-03T12:06:28.349Z,949.36
2017-03-03T12:07:27.430Z,949.38
2017-03-03T12:08:18.103Z,949.29
2017-03-03T12:09:28.269Z,949.27
2017-03-03T12:10:32.240Z,949.27
2017-03-03T12:11:37.130Z,949.29
2017-03-03T12:12:23.369Z,949.26
2017-03-03T12:13:25.426Z,949.20
2017-03-03T12:14:36.731Z,949.21
2017-03-03T12:15:37.282Z,949.19
2017-03-03T12:16:32.395Z,949.22
2017-03-03T12:17:31.788Z,949.17
2017-03-03T12:18:35.543Z,949.10
2017-03-03T12:19:12.230Z,949.12
2017-03-03T12:20:28.059Z,949.11
2017-03-03T12:21:32.276Z,949.09
2017-03-03T12:22:36.296Z,949.04
2017-03-03T12:23:22.331Z,949.01
2017-03-03T12:24:23.453Z,948.98
2017-03-03T12:25:27.050Z,948.99
2017-03-03T12:26:18.172Z,948.96
2017-03-03T12:27:21.059Z,949.06
2017-03-03T12:28:19.942Z,949.06
2017-03-03T12:29:27.050Z,949.03
2017-03-03T12:30:28.547Z,949.02
2017-03-03T12:31:37.328Z,949.03
2017-03-03T12:32:29.174Z,948.98
2017-03-03T12:33:22.323Z,948.97
2017-03-03T12:34:27.063Z,948.91
2017-03-03T12:35:39.206Z,948.91
2017-03-03T12:36:26.598Z,948.90
2017-03-03T12:37:28.793Z,948.86